createdAt,value
2023-05-19T00:00:34.653Z,12.70
2023-05-19T00:03:03.332Z,12.60
2023-05-19T00:05:32.029Z,12.60
2023-05-19T00:08:01.237Z,12.50
2023-05-19T00:10:32.043Z,12.40
2023-05-19T00:13:02.390Z,12.40
2023-05-19T00:15:30.993Z,12.30
2023-05-19T00:17:59.376Z,12.20
2023-05-19T00:20:27.732Z,12.20
2023-05-19T00:22:55.875Z,12.20
2023-05-19T00:25:24.023Z,12.10
2023-05-19T00:27:52.251Z,12.10
2023-05-19T00:30:22.880Z,12.10
2023-05-19T00:32:51.102Z,12.10
2023-05-19T00:35:19.373Z,12.00
2023-05-19T00:37:47.373Z,12.00
2023-05-19T00:40:15.614Z,12.00
2023-05-19T00:42:43.890Z,12.00
2023-05-19T00:45:12.627Z,12.00
2023-05-19T00:47:42.242Z,12.00
2023-05-19T00:50:11.376Z,12.00
2023-05-19T00:52:39.478Z,12.00
2023-05-19T00:55:09.184Z,12.00
2023-05-19T00:57:37.610Z,12.00
2023-05-19T01:00:07.512Z,12.00
2023-05-19T01:02:38.279Z,11.90
2023-05-19T01:05:09.198Z,11.90
2023-05-19T01:07:38.010Z,11.90
2023-05-19T01:10:06.735Z,11.90
2023-05-19T01:12:35.735Z,11.90
2023-05-19T01:15:05.422Z,11.90
2023-05-19T01:17:42.959Z,11.80
2023-05-19T01:20:22.338Z,11.90
2023-05-19T01:23:17.383Z,11.80
2023-05-19T01:26:12.757Z,11.90
2023-05-19T01:29:09.862Z,11.70
2023-05-19T01:31:42.441Z,11.70
2023-05-19T01:34:13.254Z,11.70
2023-05-19T01:36:44.818Z,11.60
2023-05-19T01:39:13.459Z,11.60
2023-05-19T01:41:43.579Z,11.60
2023-05-19T01:44:11.888Z,11.60
2023-05-19T01:46:41.889Z,11.60
2023-05-19T01:49:10.484Z,11.50
2023-05-19T01:51:38.635Z,11.50
2023-05-19T01:54:06.761Z,11.50
2023-05-19T01:56:43.323Z,11.50
2023-05-19T01:59:25.021Z,11.50
2023-05-19T02:01:58.201Z,11.50
2023-05-19T02:04:40.072Z,11.50
2023-05-19T02:07:14.724Z,11.40
2023-05-19T02:09:52.064Z,11.40
2023-05-19T02:12:25.134Z,11.40
2023-05-19T02:15:01.083Z,11.40
2023-05-19T02:17:34.018Z,11.40
2023-05-19T02:20:02.553Z,11.40
2023-05-19T02:22:30.845Z,11.40
2023-05-19T02:24:58.921Z,11.30
2023-05-19T02:27:27.315Z,11.30
2023-05-19T02:29:55.729Z,11.30
2023-05-19T02:32:23.721Z,11.30
2023-05-19T02:34:53.360Z,11.30
2023-05-19T02:37:23.809Z,11.30
2023-05-19T02:39:52.054Z,11.30
2023-05-19T02:42:20.228Z,11.30
2023-05-19T02:44:48.555Z,11.30
2023-05-19T02:47:16.829Z,11.30
2023-05-19T02:49:45.260Z,11.30
2023-05-19T02:52:14.764Z,11.30
2023-05-19T02:54:43.112Z,11.30
2023-05-19T02:57:11.818Z,11.30
2023-05-19T02:59:39.882Z,11.30
2023-05-19T03:02:08.267Z,11.30
2023-05-19T03:04:41.727Z,11.30
2023-05-19T03:07:11.175Z,11.30
2023-05-19T03:09:41.341Z,11.30
2023-05-19T03:12:09.640Z,11.30
2023-05-19T03:14:39.282Z,11.30
2023-05-19T03:17:10.460Z,11.30
2023-05-19T03:19:38.582Z,11.20
2023-05-19T03:22:06.780Z,11.20
2023-05-19T03:24:34.791Z,11.20
2023-05-19T03:27:05.507Z,11.20
2023-05-19T03:29:33.528Z,11.30
2023-05-19T03:32:01.948Z,11.30
2023-05-19T03:34:30.012Z,11.30
2023-05-19T03:36:57.994Z,11.30
2023-05-19T03:39:26.067Z,11.30
2023-05-19T03:41:54.447Z,11.30
2023-05-19T03:44:23.894Z,11.30
2023-05-19T03:46:52.114Z,11.30
2023-05-19T03:49:20.419Z,11.40
2023-05-19T03:51:48.527Z,11.40
2023-05-19T03:54:16.986Z,11.40
2023-05-19T03:56:44.983Z,11.40
2023-05-19T03:59:13.076Z,11.50
2023-05-19T04:01:42.475Z,11.50
2023-05-19T04:04:11.519Z,11.40
2023-05-19T04:06:39.606Z,11.50
2023-05-19T04:09:13.438Z,11.50
2023-05-19T04:11:41.553Z,11.60
2023-05-19T04:14:09.991Z,11.70
2023-05-19T04:16:38.408Z,11.70
2023-05-19T04:19:07.939Z,11.70
2023-05-19T04:21:35.971Z,11.80
2023-05-19T04:24:06.534Z,11.80
2023-05-19T04:26:35.123Z,11.90
2023-05-19T04:29:04.510Z,11.90
2023-05-19T04:31:34.439Z,11.90
2023-05-19T04:34:02.876Z,12.00
2023-05-19T04:36:34.173Z,12.00
2023-05-19T04:39:08.076Z,12.00
2023-05-19T04:41:36.667Z,12.10
2023-05-19T04:44:04.881Z,12.10
2023-05-19T04:46:32.908Z,12.10
2023-05-19T04:49:02.288Z,12.20
2023-05-19T04:51:31.645Z,12.20
2023-05-19T04:54:01.572Z,12.20
2023-05-19T04:56:30.121Z,12.30
2023-05-19T04:58:58.218Z,12.30
2023-05-19T05:01:26.774Z,12.30
2023-05-19T05:03:56.195Z,12.40
2023-05-19T05:06:24.413Z,12.40
2023-05-19T05:08:52.818Z,12.40
2023-05-19T05:11:22.888Z,12.50
2023-05-19T05:13:51.626Z,12.50
2023-05-19T05:16:20.070Z,12.50
2023-05-19T05:18:48.792Z,12.60
2023-05-19T05:21:17.592Z,12.60
2023-05-19T05:23:46.140Z,12.70
2023-05-19T05:26:19.633Z,12.70
2023-05-19T05:28:49.037Z,12.80
2023-05-19T05:31:17.277Z,12.90
2023-05-19T05:33:45.877Z,12.90
2023-05-19T05:36:14.851Z,13.00
2023-05-19T05:38:42.903Z,13.10
2023-05-19T05:41:11.150Z,13.10
2023-05-19T05:43:39.129Z,13.20
2023-05-19T05:46:08.610Z,13.20
2023-05-19T05:48:37.452Z,13.20
2023-05-19T05:51:06.767Z,13.30
2023-05-19T05:53:38.188Z,13.30
2023-05-19T05:56:06.880Z,13.30
2023-05-19T05:58:37.689Z,13.30
2023-05-19T06:01:06.000Z,13.30
2023-05-19T06:03:38.254Z,13.40
2023-05-19T06:06:06.794Z,13.40
2023-05-19T06:08:34.880Z,13.40
2023-05-19T06:11:08.201Z,13.40
2023-05-19T06:13:36.594Z,13.40
2023-05-19T06:16:04.971Z,13.50
2023-05-19T06:18:33.029Z,13.50
2023-05-19T06:21:03.491Z,13.50
2023-05-19T06:23:32.134Z,13.50
2023-05-19T06:26:00.186Z,13.60
2023-05-19T06:28:28.487Z,13.60
2023-05-19T06:30:56.723Z,13.60
2023-05-19T06:33:26.150Z,13.60
2023-05-19T06:35:56.178Z,13.60
2023-05-19T06:38:25.534Z,13.60
2023-05-19T06:40:53.743Z,13.70
2023-05-19T06:43:21.746Z,13.80
2023-05-19T06:45:49.933Z,13.90
2023-05-19T06:48:18.032Z,14.00
2023-05-19T06:50:46.217Z,14.10
2023-05-19T06:53:14.568Z,14.20
2023-05-19T06:55:54.793Z,14.30
2023-05-19T06:58:26.959Z,14.40
2023-05-19T07:00:55.068Z,14.50
2023-05-19T07:03:23.154Z,14.70
2023-05-19T07:05:51.540Z,14.80
2023-05-19T07:08:19.539Z,14.80
2023-05-19T07:10:48.900Z,14.90
2023-05-19T07:13:16.893Z,15.00
2023-05-19T07:15:45.271Z,15.00
2023-05-19T07:18:13.334Z,15.10
2023-05-19T07:20:41.492Z,15.10
2023-05-19T07:23:09.773Z,15.20
2023-05-19T07:25:37.888Z,15.30
2023-05-19T07:28:07.480Z,15.30
2023-05-19T07:30:35.790Z,15.30
2023-05-19T07:33:04.169Z,15.30
2023-05-19T07:35:32.447Z,15.40
2023-05-19T07:38:00.660Z,15.40
2023-05-19T07:40:28.776Z,15.50
2023-05-19T07:42:56.801Z,15.50
2023-05-19T07:45:26.204Z,15.50
2023-05-19T07:47:55.199Z,15.60
2023-05-19T07:50:23.607Z,15.70
2023-05-19T07:52:51.805Z,15.70
2023-05-19T07:55:22.767Z,15.70
2023-05-19T07:57:50.873Z,15.70
2023-05-19T08:00:19.622Z,15.70
2023-05-19T08:02:49.040Z,15.70
2023-05-19T08:05:17.312Z,15.70
2023-05-19T08:07:45.370Z,15.70
2023-05-19T08:10:13.553Z,15.80
2023-05-19T08:12:41.746Z,15.80
2023-05-19T08:15:11.722Z,15.90
2023-05-19T08:17:39.786Z,15.90
2023-05-19T08:20:11.812Z,16.00
2023-05-19T08:22:40.439Z,16.00
2023-05-19T08:25:09.303Z,16.10
2023-05-19T08:27:37.465Z,16.10
2023-05-19T08:30:06.412Z,16.10
2023-05-19T08:32:34.735Z,16.20
2023-05-19T08:35:02.983Z,16.30
2023-05-19T08:37:34.092Z,16.40
2023-05-19T08:40:04.597Z,16.40
2023-05-19T08:42:33.133Z,16.50
2023-05-19T08:45:01.763Z,16.50
2023-05-19T08:47:30.616Z,16.50
2023-05-19T08:50:04.974Z,16.50
2023-05-19T08:52:52.577Z,16.60
2023-05-19T08:55:31.161Z,16.60
2023-05-19T08:57:59.857Z,16.60
2023-05-19T09:00:29.724Z,16.60
2023-05-19T09:03:10.826Z,16.70
2023-05-19T09:05:46.799Z,16.80
2023-05-19T09:08:16.658Z,16.80
2023-05-19T09:10:44.918Z,16.80
2023-05-19T09:13:13.150Z,17.00
2023-05-19T09:15:42.464Z,17.00
2023-05-19T09:18:11.849Z,17.10
2023-05-19T09:20:41.730Z,17.20
2023-05-19T09:23:13.958Z,17.30
2023-05-19T09:25:50.000Z,17.30
2023-05-19T09:28:25.386Z,17.40
2023-05-19T09:31:03.418Z,17.50
2023-05-19T09:33:33.534Z,17.70
2023-05-19T09:36:01.639Z,17.80
2023-05-19T09:38:30.281Z,17.90
2023-05-19T09:41:01.220Z,18.00
2023-05-19T09:43:30.215Z,18.10
2023-05-19T09:46:01.722Z,18.20
2023-05-19T09:48:30.324Z,18.30
2023-05-19T09:50:59.087Z,18.30
2023-05-19T09:53:27.595Z,18.40
2023-05-19T09:55:58.719Z,18.60
2023-05-19T09:58:32.031Z,18.60
2023-05-19T10:01:00.686Z,18.60
2023-05-19T10:03:29.670Z,18.70
2023-05-19T10:05:58.107Z,18.70
2023-05-19T10:08:27.564Z,18.60
2023-05-19T10:10:55.925Z,18.60
2023-05-19T10:13:25.280Z,18.50
2023-05-19T10:15:59.233Z,18.50
2023-05-19T10:18:29.683Z,18.40
2023-05-19T10:21:00.222Z,18.40
2023-05-19T10:23:28.294Z,18.40
2023-05-19T10:26:01.216Z,18.40
2023-05-19T10:28:38.093Z,18.40
2023-05-19T10:31:11.026Z,18.50
2023-05-19T10:33:54.312Z,18.50
2023-05-19T10:36:40.242Z,18.50
2023-05-19T10:39:17.712Z,18.60
2023-05-19T10:41:52.839Z,18.50
2023-05-19T10:44:31.732Z,18.90
2023-05-19T10:47:01.298Z,18.90
2023-05-19T10:49:29.423Z,19.00
2023-05-19T10:51:57.952Z,19.20
2023-05-19T10:54:43.692Z,19.40
2023-05-19T10:57:17.012Z,19.50
2023-05-19T10:59:45.876Z,19.50
2023-05-19T11:02:42.334Z,19.50
2023-05-19T11:05:12.861Z,19.50
2023-05-19T11:07:43.700Z,19.30
2023-05-19T11:10:12.702Z,19.20
2023-05-19T11:12:46.733Z,19.00
2023-05-19T11:15:16.606Z,18.90
2023-05-19T11:17:49.444Z,18.80
2023-05-19T11:20:25.007Z,18.60
2023-05-19T11:23:05.934Z,18.40
2023-05-19T11:25:45.170Z,18.30
2023-05-19T11:28:14.425Z,18.10
2023-05-19T11:30:44.577Z,17.90
2023-05-19T11:33:14.789Z,17.80
2023-05-19T11:35:44.650Z,17.70
2023-05-19T11:38:12.785Z,17.70
2023-05-19T11:40:41.585Z,17.70
2023-05-19T11:43:09.937Z,17.70
2023-05-19T11:45:38.216Z,17.80
2023-05-19T11:48:07.082Z,17.70
2023-05-19T11:50:38.348Z,17.70
2023-05-19T11:53:06.453Z,17.60
2023-05-19T11:55:34.649Z,17.60
2023-05-19T11:58:05.622Z,17.60
2023-05-19T12:00:39.533Z,17.60
2023-05-19T12:03:08.975Z,17.60
2023-05-19T12:05:43.765Z,17.50
2023-05-19T12:08:12.417Z,17.60
2023-05-19T12:10:41.672Z,17.40
2023-05-19T12:13:10.787Z,17.30
2023-05-19T12:15:39.655Z,17.20
2023-05-19T12:18:08.662Z,17.10
2023-05-19T12:20:37.335Z,17.00
2023-05-19T12:23:07.566Z,16.90
2023-05-19T12:25:35.835Z,16.90
2023-05-19T12:28:04.778Z,16.80
2023-05-19T12:30:35.333Z,16.80
2023-05-19T12:33:04.398Z,16.90
2023-05-19T12:35:34.172Z,17.00
2023-05-19T12:38:06.125Z,17.10
2023-05-19T12:40:35.116Z,17.20
2023-05-19T12:43:04.072Z,17.30
2023-05-19T12:45:35.575Z,17.40
2023-05-19T12:48:05.532Z,17.50
2023-05-19T12:50:35.304Z,17.60
2023-05-19T12:53:03.828Z,17.70
2023-05-19T12:55:39.516Z,17.80
2023-05-19T12:58:08.899Z,17.90
2023-05-19T13:00:42.498Z,17.80
2023-05-19T13:03:17.514Z,17.80
2023-05-19T13:05:47.481Z,17.80
2023-05-19T13:08:17.343Z,17.90
2023-05-19T13:10:47.745Z,17.90
2023-05-19T13:13:16.240Z,18.00
2023-05-19T13:15:45.554Z,18.10
2023-05-19T13:18:14.498Z,18.10
2023-05-19T13:20:44.422Z,18.10
2023-05-19T13:23:13.370Z,18.10
2023-05-19T13:25:42.503Z,18.00
2023-05-19T13:28:12.077Z,17.90
2023-05-19T13:30:42.403Z,17.90
2023-05-19T13:33:11.520Z,17.70
2023-05-19T13:35:39.654Z,17.60
2023-05-19T13:38:09.816Z,17.50
2023-05-19T13:40:38.510Z,17.20
2023-05-19T13:43:07.800Z,17.10
2023-05-19T13:45:37.299Z,17.00
2023-05-19T13:48:07.380Z,16.80
2023-05-19T13:50:35.840Z,16.70
2023-05-19T13:53:04.030Z,16.60
2023-05-19T13:55:32.621Z,16.50
2023-05-19T13:58:00.695Z,16.40
2023-05-19T14:00:28.992Z,16.40
2023-05-19T14:02:59.338Z,16.30
2023-05-19T14:05:29.196Z,16.30
2023-05-19T14:07:58.007Z,16.30
2023-05-19T14:10:26.241Z,16.30
2023-05-19T14:13:28.908Z,16.30
2023-05-19T14:15:43.144Z,16.40
2023-05-19T14:18:12.951Z,16.40
2023-05-19T14:20:41.551Z,16.50
2023-05-19T14:23:09.624Z,16.50
2023-05-19T14:25:37.646Z,16.60
2023-05-19T14:28:05.994Z,16.70
2023-05-19T14:30:34.265Z,16.60
2023-05-19T14:33:02.549Z,16.70
2023-05-19T14:35:31.962Z,16.70
2023-05-19T14:37:59.971Z,16.70
2023-05-19T14:40:28.425Z,16.70
2023-05-19T14:42:56.616Z,16.70
2023-05-19T14:45:24.631Z,16.60
2023-05-19T14:47:52.753Z,16.60
2023-05-19T14:50:21.156Z,16.60
2023-05-19T14:52:50.747Z,16.50
2023-05-19T14:55:19.052Z,16.50
2023-05-19T14:57:47.372Z,16.50
2023-05-19T15:00:15.883Z,16.40
2023-05-19T15:02:44.144Z,16.40
2023-05-19T15:05:12.726Z,16.30
2023-05-19T15:07:40.779Z,16.20
2023-05-19T15:10:11.309Z,16.40
2023-05-19T15:12:39.392Z,16.20
2023-05-19T15:15:08.817Z,16.20
2023-05-19T15:17:36.873Z,16.20
2023-05-19T15:20:05.645Z,16.20
2023-05-19T15:22:34.119Z,16.10
2023-05-19T15:25:02.168Z,16.10
2023-05-19T15:27:31.548Z,16.10
2023-05-19T15:29:59.607Z,15.90
2023-05-19T15:32:27.668Z,15.90
2023-05-19T15:34:55.793Z,15.90
2023-05-19T15:37:23.841Z,15.90
2023-05-19T15:39:51.884Z,16.00
2023-05-19T15:42:20.057Z,15.90
2023-05-19T15:44:49.504Z,15.90
2023-05-19T15:47:17.530Z,15.90
2023-05-19T15:49:45.808Z,15.90
2023-05-19T15:52:14.201Z,15.90
2023-05-19T15:54:42.248Z,15.80
2023-05-19T15:57:10.684Z,15.90
2023-05-19T15:59:38.820Z,15.80
2023-05-19T16:02:08.922Z,15.90
2023-05-19T16:04:37.763Z,15.80
2023-05-19T16:07:06.159Z,15.80
2023-05-19T16:09:34.411Z,15.80
2023-05-19T16:12:02.424Z,15.70
2023-05-19T16:14:33.312Z,15.70
2023-05-19T16:17:01.337Z,15.70
2023-05-19T16:19:30.849Z,15.70
2023-05-19T16:21:58.945Z,15.70
2023-05-19T16:24:28.364Z,15.70
2023-05-19T16:26:56.432Z,15.70
2023-05-19T16:29:24.705Z,15.70
2023-05-19T16:31:52.744Z,15.60
2023-05-19T16:34:21.165Z,15.60
2023-05-19T16:36:50.581Z,15.60
2023-05-19T16:39:18.579Z,15.50
2023-05-19T16:41:46.600Z,15.50
2023-05-19T16:44:14.741Z,15.60
2023-05-19T16:46:42.811Z,15.50
2023-05-19T16:49:11.226Z,15.50
2023-05-19T16:51:39.233Z,15.50
2023-05-19T16:54:08.602Z,15.60
2023-05-19T16:56:36.649Z,15.40
2023-05-19T16:59:04.734Z,15.40
2023-05-19T17:01:32.741Z,15.40
2023-05-19T17:04:01.028Z,15.40
2023-05-19T17:06:29.176Z,15.40
2023-05-19T17:08:57.275Z,15.40
2023-05-19T17:11:27.256Z,15.30
2023-05-19T17:13:55.324Z,15.30
2023-05-19T17:16:24.183Z,15.30
2023-05-19T17:18:52.363Z,15.30
2023-05-19T17:21:20.373Z,15.20
2023-05-19T17:23:49.465Z,15.20
2023-05-19T17:26:17.704Z,15.20
2023-05-19T17:28:47.572Z,15.20
2023-05-19T17:31:16.600Z,15.20
2023-05-19T17:33:44.818Z,15.20
2023-05-19T17:36:13.010Z,15.20
2023-05-19T17:38:41.946Z,15.20
2023-05-19T17:41:11.216Z,15.10
2023-05-19T17:43:39.786Z,15.10
2023-05-19T17:46:09.408Z,15.10
2023-05-19T17:48:37.467Z,15.00
2023-05-19T17:51:07.222Z,15.00
2023-05-19T17:53:36.823Z,15.00
2023-05-19T17:56:07.358Z,15.00
2023-05-19T17:58:36.332Z,15.00
2023-05-19T18:01:04.605Z,15.00
2023-05-19T18:03:34.939Z,15.00
2023-05-19T18:06:04.067Z,15.00
2023-05-19T18:08:33.599Z,15.00
2023-05-19T18:11:01.906Z,15.00
2023-05-19T18:13:29.911Z,15.00
2023-05-19T18:15:59.702Z,14.90
2023-05-19T18:18:27.888Z,14.90
2023-05-19T18:20:57.416Z,14.90
2023-05-19T18:23:25.699Z,14.80
2023-05-19T18:25:53.767Z,14.80
2023-05-19T18:28:22.250Z,14.80
2023-05-19T18:31:00.189Z,14.70
2023-05-19T18:33:30.121Z,14.80
2023-05-19T18:36:00.764Z,14.80
2023-05-19T18:38:28.792Z,14.80
2023-05-19T18:40:57.737Z,14.80
2023-05-19T18:43:25.989Z,14.80
2023-05-19T18:45:54.037Z,14.70
2023-05-19T18:48:22.570Z,14.70
2023-05-19T18:50:50.904Z,14.70
2023-05-19T18:53:21.689Z,14.70
2023-05-19T18:55:49.924Z,14.60
2023-05-19T18:58:18.637Z,14.60
2023-05-19T19:00:47.086Z,14.60
2023-05-19T19:03:16.092Z,14.50
2023-05-19T19:05:45.457Z,14.50
2023-05-19T19:08:13.480Z,14.50
2023-05-19T19:10:44.323Z,14.50
2023-05-19T19:13:12.392Z,14.40
2023-05-19T19:15:40.693Z,14.40
2023-05-19T19:18:09.179Z,14.40
2023-05-19T19:20:37.252Z,14.40
2023-05-19T19:23:06.724Z,14.30
2023-05-19T19:25:35.032Z,14.40
2023-05-19T19:28:04.620Z,14.40
2023-05-19T19:30:33.002Z,14.40
2023-05-19T19:33:01.446Z,14.40
2023-05-19T19:35:29.684Z,14.40
2023-05-19T19:37:58.536Z,14.40
2023-05-19T19:40:26.971Z,14.40
2023-05-19T19:42:55.210Z,14.30
2023-05-19T19:45:24.670Z,14.30
2023-05-19T19:47:52.824Z,14.30
2023-05-19T19:50:21.109Z,14.30
2023-05-19T19:52:49.243Z,14.30
2023-05-19T19:55:17.409Z,14.30
2023-05-19T19:57:49.190Z,14.20
2023-05-19T20:00:18.234Z,14.20
2023-05-19T20:03:03.810Z,14.20
2023-05-19T20:05:32.851Z,14.20
2023-05-19T20:08:01.248Z,14.20
2023-05-19T20:10:29.408Z,14.20
2023-05-19T20:12:59.058Z,14.20
2023-05-19T20:15:27.136Z,14.10
2023-05-19T20:17:56.575Z,14.10
2023-05-19T20:20:24.672Z,14.10
2023-05-19T20:22:53.109Z,14.10
2023-05-19T20:25:21.259Z,14.10
2023-05-19T20:27:49.302Z,14.10
2023-05-19T20:30:17.407Z,14.10
2023-05-19T20:32:46.756Z,14.10
2023-05-19T20:35:16.532Z,14.10
2023-05-19T20:37:44.539Z,14.10
2023-05-19T20:40:13.861Z,14.10
2023-05-19T20:42:42.106Z,14.10
2023-05-19T20:45:10.341Z,14.10
2023-05-19T20:47:38.709Z,14.00
2023-05-19T20:50:07.598Z,14.00
2023-05-19T20:52:37.283Z,14.00
2023-05-19T20:55:06.006Z,14.00
2023-05-19T20:57:34.272Z,14.00
2023-05-19T21:00:02.566Z,14.00
2023-05-19T21:02:30.613Z,14.00
2023-05-19T21:04:58.701Z,14.00
2023-05-19T21:07:26.904Z,14.00
2023-05-19T21:09:57.620Z,13.90
2023-05-19T21:12:28.618Z,13.90
2023-05-19T21:14:56.640Z,13.90
2023-05-19T21:17:24.779Z,13.90
2023-05-19T21:19:57.671Z,13.90
2023-05-19T21:22:26.103Z,13.90
2023-05-19T21:24:56.159Z,13.90
2023-05-19T21:27:25.629Z,13.90
2023-05-19T21:29:54.223Z,13.90
2023-05-19T21:32:22.652Z,13.90
2023-05-19T21:34:50.841Z,13.90
2023-05-19T21:37:19.753Z,13.90
2023-05-19T21:39:48.821Z,13.90
2023-05-19T21:42:17.048Z,13.90
2023-05-19T21:44:46.683Z,13.90
2023-05-19T21:47:14.917Z,13.90
2023-05-19T21:49:43.042Z,13.90
2023-05-19T21:52:11.827Z,13.90
2023-05-19T21:54:39.880Z,13.90
2023-05-19T21:57:07.859Z,13.90
2023-05-19T21:59:35.999Z,13.80
2023-05-19T22:02:06.527Z,13.80
2023-05-19T22:04:34.586Z,13.90
2023-05-19T22:07:02.866Z,13.80
2023-05-19T22:09:31.137Z,13.80
2023-05-19T22:11:59.233Z,13.80
2023-05-19T22:14:27.306Z,13.90
2023-05-19T22:16:55.606Z,13.80
2023-05-19T22:19:25.098Z,13.80
2023-05-19T22:22:01.854Z,13.90
2023-05-19T22:24:34.032Z,13.90
2023-05-19T22:27:02.030Z,13.80
2023-05-19T22:29:30.262Z,13.80
2023-05-19T22:31:58.301Z,13.80
2023-05-19T22:34:27.909Z,13.80
2023-05-19T22:36:55.970Z,13.80
2023-05-19T22:39:24.033Z,13.80
2023-05-19T22:41:52.076Z,13.80
2023-05-19T22:44:20.353Z,13.80
2023-05-19T22:46:48.499Z,13.80
2023-05-19T22:49:16.484Z,13.80
2023-05-19T22:51:45.997Z,13.80
2023-05-19T22:54:14.291Z,13.80
2023-05-19T22:56:46.380Z,13.60
2023-05-19T22:59:14.552Z,13.70
2023-05-19T23:01:42.618Z,13.70
2023-05-19T23:04:11.512Z,13.70
2023-05-19T23:06:39.625Z,13.70
2023-05-19T23:09:08.961Z,13.70
2023-05-19T23:11:37.294Z,13.70
2023-05-19T23:14:05.658Z,13.70
2023-05-19T23:16:33.816Z,13.70
2023-05-19T23:19:01.942Z,13.70
2023-05-19T23:21:31.308Z,13.70
2023-05-19T23:23:59.471Z,13.70
2023-05-19T23:26:29.194Z,13.70
2023-05-19T23:28:57.394Z,13.70
2023-05-19T23:31:25.463Z,13.60
2023-05-19T23:33:53.629Z,13.60
2023-05-19T23:36:21.803Z,13.60
2023-05-19T23:38:49.885Z,13.60
2023-05-19T23:41:17.904Z,13.60
2023-05-19T23:43:47.318Z,13.60
2023-05-19T23:46:15.532Z,13.60
2023-05-19T23:48:43.587Z,13.60
2023-05-19T23:51:11.981Z,13.60
2023-05-19T23:53:40.100Z,13.50
2023-05-19T23:56:08.938Z,13.60
2023-05-19T23:58:36.904Z,13.60
